OYLLG EGPO-EGBJ
Flight info
| Callsign | OYLLG |
|---|---|
| Flight time | 1h 7m |
| Altitude | 39000 |
| Route | ULLAP DCT FOYLE DCT BELOX DCT LUXTO |
| Aircraft | CL60/M-SBDE1E2E3FGHIJ1J4J5J7M3RWXY/LB1V1D1 |
Departure
| Time | 2026-04-21 23:32 |
|---|---|
| Airport | Stornoway Airport (EGPO) |
Arrival
| Time | 2026-04-22 00:39 |
|---|---|
| Airport | Gloucestershire Airport (EGBJ) |
| Time | Latitude | Longitude | Altitude | Speed | Heading |
|---|---|---|---|---|---|
| 2026-04-21 23:12 | 58.21429 | -6.32210 | 26 ft | 0 kts | 83° |
| 2026-04-21 23:27 | 58.21430 | -6.32195 | 26 ft | 4 kts | 84° |
| 2026-04-21 23:28 | 58.21436 | -6.32091 | 28 ft | 9 kts | 84° |
| 2026-04-21 23:28 | 58.21465 | -6.31996 | 30 ft | 6 kts | 26° |
| 2026-04-21 23:28 | 58.21513 | -6.31939 | 29 ft | 9 kts | 27° |
| 2026-04-21 23:28 | 58.21585 | -6.31892 | 27 ft | 8 kts | 3° |
| 2026-04-21 23:29 | 58.21653 | -6.31982 | 23 ft | 15 kts | 318° |
| 2026-04-21 23:29 | 58.21749 | -6.32147 | 21 ft | 20 kts | 319° |
| 2026-04-21 23:29 | 58.21859 | -6.32335 | 18 ft | 20 kts | 319° |
| 2026-04-21 23:29 | 58.21975 | -6.32530 | 16 ft | 20 kts | 318° |
| 2026-04-21 23:30 | 58.22066 | -6.32683 | 16 ft | 16 kts | 319° |
| 2026-04-21 23:30 | 58.22144 | -6.32831 | 16 ft | 13 kts | 303° |
| 2026-04-21 23:30 | 58.22177 | -6.33006 | 16 ft | 5 kts | 285° |
| 2026-04-21 23:30 | 58.22190 | -6.33103 | 16 ft | 9 kts | 283° |
| 2026-04-21 23:31 | 58.22199 | -6.33205 | 16 ft | 6 kts | 275° |
| 2026-04-21 23:31 | 58.22176 | -6.33226 | 16 ft | 3 kts | 172° |
| 2026-04-21 23:31 | 58.22143 | -6.33219 | 16 ft | 30 kts | 175° |
| 2026-04-21 23:31 | 58.21514 | -6.33102 | 16 ft | 142 kts | 172° |
| 2026-04-21 23:32 | 58.20411 | -6.32794 | 674 ft | 174 kts | 162° |
| 2026-04-21 23:32 | 58.19208 | -6.32245 | 1683 ft | 191 kts | 160° |
| 2026-04-21 23:32 | 58.17883 | -6.31494 | 2390 ft | 208 kts | 155° |
| 2026-04-21 23:32 | 58.16451 | -6.30482 | 2906 ft | 228 kts | 150° |
| 2026-04-21 23:33 | 58.15223 | -6.28583 | 3418 ft | 233 kts | 120° |
| 2026-04-21 23:33 | 58.14726 | -6.25653 | 4000 ft | 239 kts | 96° |
| 2026-04-21 23:33 | 58.14593 | -6.22478 | 4522 ft | 241 kts | 93° |
| 2026-04-21 23:33 | 58.14484 | -6.19225 | 4953 ft | 248 kts | 92° |
| 2026-04-21 23:34 | 58.14418 | -6.15963 | 5107 ft | 247 kts | 94° |
| 2026-04-21 23:34 | 58.14294 | -6.12744 | 5493 ft | 245 kts | 93° |
| 2026-04-21 23:34 | 58.14202 | -6.09486 | 5909 ft | 251 kts | 93° |
| 2026-04-21 23:34 | 58.14100 | -6.06206 | 6404 ft | 253 kts | 92° |
| 2026-04-21 23:35 | 58.13969 | -6.02863 | 6750 ft | 257 kts | 96° |
| 2026-04-21 23:35 | 58.13537 | -5.99605 | 6993 ft | 260 kts | 114° |
| 2026-04-21 23:35 | 58.12706 | -5.96548 | 7269 ft | 261 kts | 117° |
| 2026-04-21 23:35 | 58.11857 | -5.93647 | 8174 ft | 252 kts | 117° |
| 2026-04-21 23:36 | 58.10974 | -5.90659 | 8929 ft | 275 kts | 118° |
| 2026-04-21 23:36 | 58.10006 | -5.87391 | 9885 ft | 292 kts | 118° |
| 2026-04-21 23:36 | 58.09029 | -5.84095 | 11272 ft | 298 kts | 118° |
| 2026-04-21 23:36 | 58.07976 | -5.80507 | 11993 ft | 327 kts | 117° |
| 2026-04-21 23:37 | 58.06860 | -5.76581 | 12932 ft | 344 kts | 117° |
| 2026-04-21 23:37 | 58.05720 | -5.72561 | 14001 ft | 355 kts | 117° |
| 2026-04-21 23:37 | 58.04554 | -5.68450 | 15117 ft | 362 kts | 117° |
| 2026-04-21 23:37 | 58.03365 | -5.64254 | 16227 ft | 368 kts | 117° |
| 2026-04-21 23:38 | 58.02151 | -5.59969 | 17293 ft | 374 kts | 117° |
| 2026-04-21 23:38 | 58.00919 | -5.55625 | 18301 ft | 380 kts | 117° |
| 2026-04-21 23:38 | 57.99676 | -5.51243 | 19280 ft | 385 kts | 117° |
| 2026-04-21 23:38 | 57.98408 | -5.46778 | 20229 ft | 390 kts | 117° |
| 2026-04-21 23:39 | 57.97132 | -5.42288 | 21137 ft | 394 kts | 116° |
| 2026-04-21 23:39 | 57.95825 | -5.37697 | 22024 ft | 398 kts | 116° |
| 2026-04-21 23:39 | 57.94504 | -5.33061 | 22846 ft | 403 kts | 117° |
| 2026-04-21 23:39 | 57.93174 | -5.28400 | 23607 ft | 408 kts | 117° |
| 2026-04-21 23:40 | 57.91789 | -5.23686 | 24365 ft | 413 kts | 121° |
| 2026-04-21 23:40 | 57.89950 | -5.19489 | 25108 ft | 418 kts | 136° |
| 2026-04-21 23:40 | 57.87557 | -5.16342 | 25776 ft | 424 kts | 152° |
| 2026-04-21 23:40 | 57.84752 | -5.14445 | 26354 ft | 432 kts | 164° |
| 2026-04-21 23:41 | 57.81752 | -5.13068 | 26890 ft | 438 kts | 165° |
| 2026-04-21 23:41 | 57.78754 | -5.11690 | 27449 ft | 442 kts | 165° |
| 2026-04-21 23:41 | 57.75722 | -5.10294 | 28030 ft | 445 kts | 165° |
| 2026-04-21 23:41 | 57.72735 | -5.08918 | 28586 ft | 447 kts | 165° |
| 2026-04-21 23:42 | 57.69678 | -5.07510 | 29116 ft | 449 kts | 165° |
| 2026-04-21 23:42 | 57.66633 | -5.06108 | 29626 ft | 451 kts | 165° |
| 2026-04-21 23:42 | 57.63582 | -5.04704 | 30091 ft | 454 kts | 165° |
| 2026-04-21 23:42 | 57.60528 | -5.03300 | 30593 ft | 454 kts | 165° |
| 2026-04-21 23:43 | 57.57471 | -5.01896 | 31137 ft | 453 kts | 165° |
| 2026-04-21 23:43 | 57.54381 | -5.00478 | 31622 ft | 452 kts | 165° |
| 2026-04-21 23:43 | 57.51335 | -4.99081 | 32077 ft | 451 kts | 165° |
| 2026-04-21 23:43 | 57.48334 | -4.97706 | 32447 ft | 450 kts | 165° |
| 2026-04-21 23:44 | 57.45299 | -4.96317 | 32796 ft | 450 kts | 165° |
| 2026-04-21 23:44 | 57.42252 | -4.94925 | 33121 ft | 450 kts | 165° |
| 2026-04-21 23:44 | 57.39234 | -4.93548 | 33423 ft | 451 kts | 165° |
| 2026-04-21 23:44 | 57.36149 | -4.92142 | 33720 ft | 451 kts | 165° |
| 2026-04-21 23:45 | 57.33128 | -4.90767 | 34003 ft | 452 kts | 165° |
| 2026-04-21 23:45 | 57.27012 | -4.87990 | 34579 ft | 453 kts | 165° |
| 2026-04-21 23:45 | 57.23933 | -4.86595 | 34881 ft | 453 kts | 165° |
| 2026-04-21 23:46 | 57.20874 | -4.85212 | 35174 ft | 453 kts | 165° |
| 2026-04-21 23:46 | 57.17793 | -4.83820 | 35470 ft | 452 kts | 165° |
| 2026-04-21 23:46 | 57.14770 | -4.82457 | 35778 ft | 452 kts | 165° |
| 2026-04-21 23:46 | 57.11688 | -4.81070 | 36089 ft | 451 kts | 165° |
| 2026-04-21 23:47 | 57.08640 | -4.79700 | 36373 ft | 451 kts | 165° |
| 2026-04-21 23:47 | 57.05605 | -4.78338 | 36630 ft | 451 kts | 165° |
| 2026-04-21 23:47 | 57.02566 | -4.76976 | 36867 ft | 451 kts | 165° |
| 2026-04-21 23:47 | 56.99520 | -4.75614 | 37091 ft | 452 kts | 165° |
| 2026-04-21 23:48 | 56.96446 | -4.74241 | 37305 ft | 452 kts | 165° |
| 2026-04-21 23:48 | 56.93375 | -4.72872 | 37529 ft | 453 kts | 165° |
| 2026-04-21 23:48 | 56.90334 | -4.71518 | 37739 ft | 453 kts | 165° |
| 2026-04-21 23:48 | 56.87291 | -4.70166 | 37928 ft | 453 kts | 165° |
| 2026-04-21 23:49 | 56.84188 | -4.68790 | 38125 ft | 454 kts | 165° |
| 2026-04-21 23:49 | 56.81144 | -4.67442 | 38307 ft | 454 kts | 165° |
| 2026-04-21 23:49 | 56.78098 | -4.66096 | 38502 ft | 455 kts | 165° |
| 2026-04-21 23:49 | 56.75015 | -4.64735 | 38702 ft | 455 kts | 165° |
| 2026-04-21 23:50 | 56.71958 | -4.63388 | 38904 ft | 456 kts | 165° |
| 2026-04-21 23:50 | 56.68855 | -4.62023 | 39110 ft | 456 kts | 165° |
| 2026-04-21 23:50 | 56.65784 | -4.60674 | 39324 ft | 456 kts | 165° |
| 2026-04-21 23:50 | 56.62694 | -4.59320 | 39500 ft | 457 kts | 165° |
| 2026-04-21 23:51 | 56.59610 | -4.57970 | 39503 ft | 461 kts | 165° |
| 2026-04-21 23:51 | 56.53320 | -4.55224 | 39511 ft | 468 kts | 165° |
| 2026-04-21 23:52 | 56.46978 | -4.52466 | 39494 ft | 475 kts | 165° |
| 2026-04-21 23:52 | 56.40507 | -4.49662 | 39494 ft | 480 kts | 165° |
| 2026-04-21 23:53 | 56.34015 | -4.46860 | 39487 ft | 481 kts | 165° |
| 2026-04-21 23:53 | 56.27510 | -4.44061 | 39499 ft | 481 kts | 165° |
| 2026-04-21 23:54 | 56.21055 | -4.41294 | 39502 ft | 479 kts | 165° |
| 2026-04-21 23:54 | 56.14573 | -4.38524 | 39500 ft | 479 kts | 165° |
| 2026-04-21 23:55 | 56.08087 | -4.35803 | 39492 ft | 479 kts | 166° |
| 2026-04-21 23:55 | 56.01630 | -4.33109 | 39514 ft | 479 kts | 166° |
| 2026-04-21 23:56 | 55.95130 | -4.30406 | 39519 ft | 479 kts | 166° |
| 2026-04-21 23:56 | 55.88660 | -4.27724 | 39519 ft | 479 kts | 166° |
| 2026-04-21 23:57 | 55.82167 | -4.25043 | 39507 ft | 480 kts | 167° |
| 2026-04-21 23:57 | 55.75709 | -4.22384 | 39511 ft | 479 kts | 167° |
| 2026-04-21 23:58 | 55.69249 | -4.19734 | 39510 ft | 479 kts | 166° |
| 2026-04-21 23:58 | 55.62738 | -4.17072 | 39502 ft | 480 kts | 166° |
| 2026-04-21 23:59 | 55.56242 | -4.14425 | 39497 ft | 480 kts | 167° |
| 2026-04-21 23:59 | 55.49782 | -4.11801 | 39479 ft | 480 kts | 167° |
| 2026-04-22 00:00 | 55.43275 | -4.09167 | 39475 ft | 480 kts | 167° |
| 2026-04-22 00:00 | 55.36780 | -4.06548 | 39472 ft | 481 kts | 167° |
| 2026-04-22 00:01 | 55.30276 | -4.03932 | 39446 ft | 481 kts | 167° |
| 2026-04-22 00:01 | 55.23769 | -4.01325 | 39450 ft | 481 kts | 167° |
| 2026-04-22 00:02 | 55.17255 | -3.98724 | 39468 ft | 480 kts | 167° |
| 2026-04-22 00:02 | 55.10771 | -3.96142 | 39468 ft | 481 kts | 167° |
| 2026-04-22 00:03 | 55.04244 | -3.93553 | 39487 ft | 481 kts | 167° |
| 2026-04-22 00:03 | 54.97736 | -3.90980 | 39499 ft | 480 kts | 167° |
| 2026-04-22 00:04 | 54.91264 | -3.88429 | 39509 ft | 479 kts | 167° |
| 2026-04-22 00:04 | 54.84759 | -3.85874 | 39490 ft | 480 kts | 167° |
| 2026-04-22 00:05 | 54.78254 | -3.83328 | 39478 ft | 480 kts | 167° |
| 2026-04-22 00:05 | 54.71758 | -3.80793 | 39494 ft | 480 kts | 167° |
| 2026-04-22 00:06 | 54.65262 | -3.78267 | 39478 ft | 480 kts | 167° |
| 2026-04-22 00:06 | 54.58770 | -3.75751 | 39456 ft | 481 kts | 167° |
| 2026-04-22 00:07 | 54.52285 | -3.73245 | 39459 ft | 481 kts | 167° |
| 2026-04-22 00:07 | 54.45769 | -3.70736 | 39450 ft | 482 kts | 167° |
| 2026-04-22 00:08 | 54.39221 | -3.68223 | 39444 ft | 482 kts | 167° |
| 2026-04-22 00:08 | 54.32719 | -3.65736 | 39438 ft | 482 kts | 167° |
| 2026-04-22 00:09 | 54.26163 | -3.63236 | 39436 ft | 481 kts | 167° |
| 2026-04-22 00:09 | 54.19643 | -3.60758 | 39416 ft | 481 kts | 167° |
| 2026-04-22 00:10 | 54.13144 | -3.58296 | 39422 ft | 481 kts | 167° |
| 2026-04-22 00:10 | 54.06667 | -3.55850 | 39418 ft | 481 kts | 167° |
| 2026-04-22 00:11 | 54.00138 | -3.53392 | 39411 ft | 482 kts | 167° |
| 2026-04-22 00:11 | 53.93602 | -3.50940 | 39414 ft | 481 kts | 167° |
| 2026-04-22 00:12 | 53.87259 | -3.47682 | 39421 ft | 481 kts | 155° |
| 2026-04-22 00:12 | 53.81273 | -3.42646 | 39078 ft | 483 kts | 153° |
| 2026-04-22 00:12 | 53.78266 | -3.40099 | 38604 ft | 477 kts | 153° |
| 2026-04-22 00:13 | 53.75332 | -3.37615 | 38075 ft | 473 kts | 153° |
| 2026-04-22 00:13 | 53.72421 | -3.35153 | 37582 ft | 468 kts | 154° |
| 2026-04-22 00:13 | 53.69538 | -3.32716 | 37043 ft | 465 kts | 155° |
| 2026-04-22 00:13 | 53.66880 | -3.30471 | 36606 ft | 462 kts | 155° |
| 2026-04-22 00:14 | 53.64024 | -3.28061 | 36116 ft | 465 kts | 156° |
| 2026-04-22 00:14 | 53.61102 | -3.25601 | 35616 ft | 472 kts | 156° |
| 2026-04-22 00:14 | 53.58176 | -3.23141 | 34993 ft | 476 kts | 156° |
| 2026-04-22 00:14 | 53.55236 | -3.20670 | 34446 ft | 472 kts | 157° |
| 2026-04-22 00:15 | 53.52319 | -3.18220 | 33992 ft | 471 kts | 156° |
| 2026-04-22 00:15 | 53.49366 | -3.15747 | 33464 ft | 475 kts | 156° |
| 2026-04-22 00:15 | 53.46404 | -3.13269 | 32941 ft | 478 kts | 156° |
| 2026-04-22 00:15 | 53.43382 | -3.10745 | 32405 ft | 481 kts | 156° |
| 2026-04-22 00:16 | 53.40405 | -3.08261 | 31871 ft | 483 kts | 156° |
| 2026-04-22 00:16 | 53.37385 | -3.05744 | 31337 ft | 485 kts | 156° |
| 2026-04-22 00:16 | 53.34333 | -3.03205 | 30797 ft | 488 kts | 156° |
| 2026-04-22 00:16 | 53.31298 | -3.00684 | 30254 ft | 490 kts | 156° |
| 2026-04-22 00:17 | 53.28263 | -2.98167 | 29715 ft | 491 kts | 156° |
| 2026-04-22 00:17 | 53.25182 | -2.95614 | 29166 ft | 491 kts | 156° |
| 2026-04-22 00:17 | 53.22165 | -2.93118 | 28634 ft | 487 kts | 156° |
| 2026-04-22 00:17 | 53.19131 | -2.90612 | 28087 ft | 483 kts | 156° |
| 2026-04-22 00:18 | 53.16154 | -2.88156 | 27553 ft | 480 kts | 155° |
| 2026-04-22 00:18 | 53.13196 | -2.85719 | 27021 ft | 476 kts | 155° |
| 2026-04-22 00:18 | 53.10218 | -2.83269 | 26492 ft | 473 kts | 155° |
| 2026-04-22 00:18 | 53.07296 | -2.80870 | 25977 ft | 469 kts | 155° |
| 2026-04-22 00:19 | 53.04405 | -2.78450 | 25519 ft | 465 kts | 154° |
| 2026-04-22 00:19 | 53.01522 | -2.76116 | 24968 ft | 465 kts | 156° |
| 2026-04-22 00:19 | 52.98597 | -2.73769 | 24444 ft | 461 kts | 155° |
| 2026-04-22 00:19 | 52.95746 | -2.71439 | 23917 ft | 458 kts | 155° |
| 2026-04-22 00:20 | 52.92901 | -2.69118 | 23438 ft | 455 kts | 155° |
| 2026-04-22 00:20 | 52.90043 | -2.66790 | 22902 ft | 450 kts | 154° |
| 2026-04-22 00:20 | 52.87268 | -2.64534 | 22414 ft | 443 kts | 154° |
| 2026-04-22 00:20 | 52.84486 | -2.62275 | 21911 ft | 436 kts | 154° |
| 2026-04-22 00:21 | 52.81795 | -2.60093 | 21435 ft | 429 kts | 154° |
| 2026-04-22 00:21 | 52.79139 | -2.57943 | 20972 ft | 423 kts | 153° |
| 2026-04-22 00:21 | 52.76531 | -2.55835 | 20508 ft | 416 kts | 153° |
| 2026-04-22 00:21 | 52.73963 | -2.53762 | 20050 ft | 411 kts | 153° |
| 2026-04-22 00:22 | 52.71415 | -2.51708 | 19591 ft | 404 kts | 153° |
| 2026-04-22 00:22 | 52.68897 | -2.49681 | 19147 ft | 399 kts | 152° |
| 2026-04-22 00:22 | 52.66401 | -2.47674 | 18701 ft | 394 kts | 152° |
| 2026-04-22 00:22 | 52.63963 | -2.45716 | 18261 ft | 388 kts | 152° |
| 2026-04-22 00:23 | 52.61555 | -2.43781 | 17844 ft | 385 kts | 152° |
| 2026-04-22 00:23 | 52.59164 | -2.41849 | 17415 ft | 382 kts | 151° |
| 2026-04-22 00:23 | 52.56763 | -2.39918 | 16927 ft | 380 kts | 152° |
| 2026-04-22 00:23 | 52.54425 | -2.38030 | 16476 ft | 377 kts | 151° |
| 2026-04-22 00:24 | 52.52067 | -2.36112 | 16063 ft | 370 kts | 151° |
| 2026-04-22 00:24 | 52.49746 | -2.34234 | 15714 ft | 371 kts | 152° |
| 2026-04-22 00:24 | 52.47417 | -2.32393 | 15309 ft | 366 kts | 153° |
| 2026-04-22 00:24 | 52.45122 | -2.30582 | 14926 ft | 363 kts | 152° |
| 2026-04-22 00:25 | 52.42854 | -2.28791 | 14511 ft | 360 kts | 152° |
| 2026-04-22 00:25 | 52.40579 | -2.26996 | 14127 ft | 356 kts | 152° |
| 2026-04-22 00:25 | 52.38354 | -2.25241 | 13710 ft | 351 kts | 152° |
| 2026-04-22 00:25 | 52.36177 | -2.23525 | 13350 ft | 344 kts | 152° |
| 2026-04-22 00:26 | 52.34065 | -2.21861 | 12964 ft | 336 kts | 152° |
| 2026-04-22 00:26 | 52.31971 | -2.20213 | 12576 ft | 327 kts | 152° |
| 2026-04-22 00:26 | 52.29957 | -2.18628 | 12233 ft | 318 kts | 152° |
| 2026-04-22 00:26 | 52.27993 | -2.17082 | 11889 ft | 309 kts | 151° |
| 2026-04-22 00:27 | 52.26070 | -2.15567 | 11547 ft | 301 kts | 151° |
| 2026-04-22 00:27 | 52.24188 | -2.14087 | 11213 ft | 293 kts | 151° |
| 2026-04-22 00:27 | 52.22384 | -2.12671 | 10892 ft | 285 kts | 151° |
| 2026-04-22 00:27 | 52.20607 | -2.11277 | 10589 ft | 277 kts | 151° |
| 2026-04-22 00:28 | 52.18896 | -2.09934 | 10267 ft | 272 kts | 150° |
| 2026-04-22 00:28 | 52.17120 | -2.08804 | 9754 ft | 279 kts | 163° |
| 2026-04-22 00:28 | 52.15157 | -2.08667 | 9315 ft | 284 kts | 184° |
| 2026-04-22 00:28 | 52.13287 | -2.09688 | 8896 ft | 295 kts | 205° |
| 2026-04-22 00:29 | 52.11641 | -2.12031 | 8470 ft | 319 kts | 229° |
| 2026-04-22 00:29 | 52.10512 | -2.15012 | 8396 ft | 303 kts | 236° |
| 2026-04-22 00:29 | 52.09356 | -2.17821 | 8124 ft | 293 kts | 230° |
| 2026-04-22 00:29 | 52.08164 | -2.20503 | 7603 ft | 294 kts | 230° |
| 2026-04-22 00:30 | 52.06959 | -2.23225 | 7105 ft | 294 kts | 230° |
| 2026-04-22 00:30 | 52.05788 | -2.25877 | 6795 ft | 287 kts | 230° |
| 2026-04-22 00:30 | 52.04630 | -2.28506 | 6472 ft | 281 kts | 230° |
| 2026-04-22 00:30 | 52.03507 | -2.31053 | 6163 ft | 275 kts | 230° |
| 2026-04-22 00:31 | 52.02396 | -2.33573 | 5857 ft | 269 kts | 230° |
| 2026-04-22 00:31 | 52.01317 | -2.36023 | 5557 ft | 264 kts | 229° |
| 2026-04-22 00:31 | 52.00258 | -2.38428 | 5272 ft | 259 kts | 229° |
| 2026-04-22 00:31 | 51.99223 | -2.40775 | 4998 ft | 254 kts | 229° |
| 2026-04-22 00:32 | 51.98183 | -2.43135 | 4704 ft | 253 kts | 229° |
| 2026-04-22 00:32 | 51.97161 | -2.45449 | 4422 ft | 253 kts | 229° |
| 2026-04-22 00:32 | 51.96012 | -2.47573 | 4132 ft | 244 kts | 209° |
| 2026-04-22 00:32 | 51.94519 | -2.48614 | 3800 ft | 228 kts | 180° |
| 2026-04-22 00:33 | 51.93022 | -2.48466 | 3511 ft | 211 kts | 156° |
| 2026-04-22 00:33 | 51.91687 | -2.47542 | 3207 ft | 204 kts | 147° |
| 2026-04-22 00:33 | 51.90424 | -2.46530 | 3025 ft | 202 kts | 146° |
| 2026-04-22 00:33 | 51.89171 | -2.45536 | 2786 ft | 197 kts | 147° |
| 2026-04-22 00:34 | 51.88153 | -2.44326 | 2695 ft | 167 kts | 122° |
| 2026-04-22 00:34 | 51.87735 | -2.42682 | 2751 ft | 154 kts | 98° |
| 2026-04-22 00:34 | 51.87737 | -2.40951 | 2774 ft | 152 kts | 86° |
| 2026-04-22 00:34 | 51.87860 | -2.39255 | 2684 ft | 153 kts | 85° |
| 2026-04-22 00:35 | 51.87981 | -2.37566 | 2473 ft | 146 kts | 85° |
| 2026-04-22 00:35 | 51.88092 | -2.35996 | 2312 ft | 134 kts | 85° |
| 2026-04-22 00:35 | 51.88192 | -2.34551 | 2118 ft | 123 kts | 84° |
| 2026-04-22 00:35 | 51.88287 | -2.33184 | 1971 ft | 124 kts | 85° |
| 2026-04-22 00:36 | 51.88379 | -2.31860 | 1808 ft | 108 kts | 85° |
| 2026-04-22 00:36 | 51.88459 | -2.30732 | 1654 ft | 96 kts | 85° |
| 2026-04-22 00:36 | 51.88531 | -2.29665 | 1577 ft | 97 kts | 85° |
| 2026-04-22 00:36 | 51.88596 | -2.28575 | 1452 ft | 97 kts | 85° |
| 2026-04-22 00:37 | 51.88662 | -2.27464 | 1292 ft | 99 kts | 84° |
| 2026-04-22 00:37 | 51.88750 | -2.26352 | 1164 ft | 100 kts | 83° |
| 2026-04-22 00:37 | 51.88818 | -2.25375 | 1062 ft | 102 kts | 83° |
| 2026-04-22 00:37 | 51.88901 | -2.24228 | 933 ft | 103 kts | 82° |
| 2026-04-22 00:38 | 51.88982 | -2.23061 | 794 ft | 105 kts | 82° |
| 2026-04-22 00:38 | 51.89057 | -2.21873 | 658 ft | 107 kts | 81° |
| 2026-04-22 00:38 | 51.89142 | -2.20650 | 495 ft | 110 kts | 81° |
| 2026-04-22 00:38 | 51.89227 | -2.19414 | 323 ft | 111 kts | 81° |
| 2026-04-22 00:39 | 51.89310 | -2.18175 | 166 ft | 113 kts | 81° |
| 2026-04-22 00:39 | 51.89395 | -2.16920 | 75 ft | 101 kts | 80° |
| 2026-04-22 00:39 | 51.89449 | -2.16151 | 86 ft | 28 kts | 84° |
| 2026-04-22 00:39 | 51.89459 | -2.15956 | 90 ft | 11 kts | 101° |
| 2026-04-22 00:40 | 51.89428 | -2.15905 | 91 ft | 4 kts | 119° |
| 2026-04-22 00:40 | 51.89398 | -2.15836 | 93 ft | 11 kts | 135° |
| 2026-04-22 00:40 | 51.89373 | -2.15819 | 93 ft | 4 kts | 231° |
| 2026-04-22 00:40 | 51.89342 | -2.15849 | 92 ft | 5 kts | 170° |
| 2026-04-22 00:41 | 51.89322 | -2.15822 | 93 ft | 5 kts | 92° |
| 2026-04-22 00:41 | 51.89324 | -2.15801 | 94 ft | 0 kts | 78° |